TimeWET,TemperatureF,Dew PointF,Humidity,Sea Level PressureIn,VisibilityMPH,Wind Direction,Wind SpeedMPH,Gust SpeedMPH,PrecipitationIn,Events,Conditions,WindDirDegrees,DateUTC
6:00 AM,49,37,52,,12,SE,3.5,,,,Clear,140,2012-11-16 06:00:00
6:00 AM,50.0,37.4,62,30.06,-9999.0,SE,3.5,-,N/A,,Clear,140,2012-11-16 06:00:00
7:00 AM,48.2,37.4,66,30.06,-9999.0,ESE,3.5,-,N/A,,Clear,120,2012-11-16 07:00:00
8:00 AM,50.0,37.4,62,30.06,-9999.0,NNW,3.5,-,N/A,,Clear,340,2012-11-16 08:00:00
9:00 AM,56,33,29,,12,WNW,3.5,,,,Clear,300,2012-11-16 09:00:00
9:00 AM,55.4,33.8,44,30.12,-9999.0,WNW,3.5,-,N/A,,Clear,300,2012-11-16 09:00:00
10:00 AM,60.8,26.6,27,30.12,-9999.0,South,3.5,-,N/A,,Clear,180,2012-11-16 10:00:00
11:00 AM,64.4,26.6,24,30.09,-9999.0,South,3.5,-,N/A,,Clear,180,2012-11-16 11:00:00
12:00 PM,66,24,11,,12,SSE,3.5,,,,Clear,160,2012-11-16 12:00:00
12:00 PM,66.2,24.8,21,30.09,-9999.0,SSE,3.5,-,N/A,,Clear,160,2012-11-16 12:00:00
1:00 PM,68.0,24.8,20,30.06,-9999.0,West,3.5,-,N/A,,Clear,280,2012-11-16 13:00:00
2:00 PM,69.8,23.0,17,30.01,6.2,WSW,6.9,-,N/A,,Mostly Cloudy,240,2012-11-16 14:00:00
3:00 PM,69,22,8,,12,WSW,6.9,,,,Scattered Clouds,240,2012-11-16 15:00:00
3:00 PM,69.8,23.0,17,30.01,-9999.0,North,-9999.0,-,N/A,,Mostly Cloudy,0,2012-11-16 15:00:00
4:00 PM,69.8,23.0,17,30.01,6.2,SW,9.2,-,N/A,,Mostly Cloudy,220,2012-11-16 16:00:00
5:00 PM,68.0,23.0,18,30.01,6.2,WSW,6.9,-,N/A,,Partly Cloudy,240,2012-11-16 17:00:00
6:00 PM,65,26,13,,12,WSW,6.9,,,,Mostly Cloudy,240,2012-11-16 18:00:00
6:00 PM,64.4,26.6,24,30.01,6.2,WSW,6.9,-,N/A,,Partly Cloudy,240,2012-11-16 18:00:00
9:00 PM,62,28,17,,9,NW,6.9,,,,Mostly Cloudy,320,2012-11-16 21:00:00
9:00 PM,62.6,28.4,27,30.01,6.2,NW,4.6,-,N/A,,Partly Cloudy,320,2012-11-16 21:00:00